Date,TemperatureHighF,TemperatureAvgF,TemperatureLowF,DewpointHighF,DewpointAvgF,DewpointLowF,HumidityHigh,HumidityAvg,HumidityLow,PressureMaxIn,PressureMinIn,WindSpeedMaxMPH,WindSpeedAvgMPH,GustSpeedMaxMPH,PrecipitationSumIn
2013-9-1,85,76,71,74,72,69,97,88,68,29.87,29.73,14,1,14,0.27
2013-9-2,86,76,65,70,67,63,98,78,48,29.95,29.85,9,1,9,0.00
2013-9-3,88,73,61,68,63,57,97,75,37,30.04,29.94,9,1,9,0.01
2013-9-4,87,73,64,64,62,59,92,71,40,30.10,30.03,7,0,7,0.00
2013-9-5,88,72,57,69,62,56,97,75,42,30.17,30.06,11,1,11,0.00
2013-9-6,92,73,58,68,63,57,97,75,37,30.13,29.98,8,1,8,0.00
2013-9-7,96,80,62,72,67,61,98,69,39,30.02,29.89,8,1,8,0.00
2013-9-8,96,84,65,74,71,64,97,67,42,29.93,29.83,4,1,8,0.00
2013-9-9,96,80,66,72,68,63,97,73,35,29.97,29.88,4,1,10,0.00
2013-9-10,96,78,64,71,66,60,97,71,32,30.08,29.95,5,1,12,0.00
2013-9-11,95,79,65,73,68,64,96,74,42,30.11,29.99,4,0,6,0.00
2013-9-12,92,79,68,74,69,65,96,75,47,30.06,29.93,5,1,12,0.00
2013-9-13,76,70,65,68,62,55,82,74,61,30.05,29.99,3,1,7,0.00
2013-9-14,83,69,54,57,54,52,96,63,37,30.08,29.95,4,1,9,0.00
2013-9-15,91,72,55,70,60,53,96,72,42,30.04,29.96,4,1,8,0.00
2013-9-16,70,68,66,67,65,64,95,93,87,30.10,30.01,3,0,5,0.45
2013-9-20,69,63,59,60,58,54,96,85,67,29.94,29.89,2,1,4,2.14
2013-9-21,76,62,50,57,52,45,97,76,36,30.00,29.89,4,1,11,0.00
2013-9-22,79,61,49,58,53,48,98,78,41,29.99,29.85,3,1,8,0.01
2013-9-23,81,63,48,61,55,47,98,78,45,29.93,29.77,4,1,11,0.00
2013-9-24,77,64,56,61,58,55,97,83,54,29.88,29.80,5,1,11,0.01
2013-9-25,80,68,54,66,61,54,97,79,55,29.86,29.79,3,0,6,0.00
2013-9-26,87,69,56,68,61,56,98,78,41,29.94,29.84,5,1,9,0.01
2013-9-27,87,72,58,68,62,57,97,75,44,30.00,29.88,5,1,11,0.00
2013-9-28,82,70,62,69,65,61,97,86,62,30.01,29.88,4,1,16,0.59
2013-9-29,77,64,57,61,58,56,97,82,49,30.04,29.90,8,1,8,0.01
2013-9-30,83,65,56,69,61,54,98,88,55,29.93,29.81,4,1,7,0.01